To NAV CANADA Home Page Login to a new session Search on AWWS site Feedback and Comments Disclaimer Vers la page française équivalente Tips FAQ What's new on the site To the Forecasts and Observations / NOTAM section To "File a Flight Plan" website Publications and other links Update of the User's profile FIC Telephone Numbers My Weather Data Folder Route Weather Data Regional Weather Data Local Weather Data To the Forecasts and Observations / NOTAM section
Request Generated 04/23/2014 at 09:45:59 UTC . Weather information available at that time is displayed.

METAR/TAF

VANCOUVER/VANCOUVER INTL/BC    

METAR CYVR 230900Z 06007KT 12SM SCT013 BKN025 OVC042 07/06 A2984 RMK
SC3SC2SC3 SLP104=
METAR CYVR 230800Z 06006KT 12SM SCT012 OVC017 07/06 A2984 RMK SC4SC4
SLP104=
SPECI CYVR 230728Z 05006KT 12SM SCT015 OVC025 07/05 A2984 RMK SF4SC4
SLP104=
METAR CYVR 230700Z 06006KT 12SM BKN019 OVC027 07/06 A2984 RMK SC5SC3
SLP103=

TAF CYVR 230838Z 2309/2412 08008KT P6SM -SHRA SCT020 BKN030 TEMPO
2309/2318 5SM -SHRA BR FEW008 BKN020
BECMG 2312/2314 14010KT
FM231800 14008KT P6SM BKN040
FM232100 14010KT P6SM SCT040
FM240300 09010KT P6SM SCT030 BKN050 TEMPO 2403/2412 P6SM -RA
BKN030
RMK NXT FCST BY 231200Z=
Your time UTC time
Weather data provided by Environment Canada and NAV CANADA